Pelham, NH (03076)

8:01 AM EDT on October 01, 2016 (GMT -0400)
Independence Dr | | Change Station

Elev 180 ft 42.74 °N, 71.34 °W | Updated 10 seconds ago

Rain
Rain
51.2 °F
Feels Like 51.2 °F
N
0.0
Wind Variable Wind from WNW
Gusts 0.0 mph

Today
High -- | Low -- °F
--% Chance of Precip.
Yesterday
High -- | Low -- °F
Precip. -- in
Pressure 30.39 in
Visibility 10.0 miles
Clouds Overcast 500 ft
Dew Point 50 °F
Humidity 96%
Rainfall 0.38 in
Snow Depth Not available.
6:43 AM 6:25 PM
New Moon, 0% visible
METAR KASH 011156Z 33005KT 10SM OVC005 11/10 A3035 RMK AO2 RAE56 CIG 004V008 SLP290 P0000 60015 70020 T01060100 10111 20106 50001
Pressure 30.39 in
Visibility 10.0 miles
Clouds Overcast 500 ft
Dew Point 50 °F
Humidity 96%
Rainfall 0.38 in
Snow Depth Not available.
6:43 AM 6:25 PM
New Moon, 0% visible
METAR KASH 011156Z 33005KT 10SM OVC005 11/10 A3035 RMK AO2 RAE56 CIG 004V008 SLP290 P0000 60015 70020 T01060100 10111 20106 50001

10-Day Weather Forecast

Almanac

Astronomy

Oct. 01, 2016 Rise Set
Actual Time
Civil Twilight
Nautical Twilight
Astronomical Twilight
Moon
Length of Visible Light
Length of Day
Tomorrow will be .
, % of the Moon is Illuminated

Today's Extremes

State Highs State Lows

Community

WunderPhotos

Upload Photos

1,942,918 photos uploaded!

WunderBlog® & News

Nearby

Air Quality

  Air Quality AQ Index Pollutant
Not available.

Snow Depth

Station Depth Elevation

Earthquake Activity

City Distance Mag. Time & Date
Minimum magnitude displayed is 2.5.

Coastal Water Temperatures

Place Temperature

Stations

Nearby Weather Stations

Station Location Temp. Windchill Dew Point Humidity Wind Precip. Elev Updated Type
                   

Watches & Warnings

There are currently no watches in effect.